Winchester, Nevada
Current Conditions -  °F | °C
As of 12:56 AM on Wednesday 22 Oct 2014 (Local Time) from KLAS Reporting Station
Few Clouds Few Clouds  
Wind Chill: 67°   Ceiling: Unl
Heat Index: 67°   Visibility: 10mi
Dew Point: 25°   Wind: 7mph
Humidity: 21%   Direction: 200°SSW
Pressure: 29.85"   Gusts: NA
Location:  36.13°N, 115.11°W
Report Text: KLAS 220756Z 20006KT 10SM FEW250 19/M04 A2985 RMK AO2 SLP087 T01941039 403000194
Loading
Personal Weather Stations






























Interactive Weather Map
Tropical Storm Tracking
New forecast layout! Learn more

10-Day Weather Forecast

Advertisements
Track Severe Weather on mobile